Terminal Aerodrome Forecast
Issued by NWS

Home | Current Version | Previous Version | Graphics & Text | Print | Product List | Glossary On
Versions: 1 2 3 4 5 6 7 8 9 10 11 12 13 14
000
FTUS43 KIWX 251700 RRA
TAFSBN
TAF
KSBN 251745Z 2518/2618 07012KT 1SM -SN OVC007
     FM252000 05018G24KT 2SM -SN BLSN OVC007
     FM260200 04011KT P6SM SCT008 OVC015
     FM260600 05004KT P6SM SCT015=

USA.gov is the U.S. government's official web portal to all federal, state and local government web resources and services.